Time;durP1;ratioP1;P1;durP2;ratioP2;P2;SDS_P1;SDS_P2;PMS_P1;PMS_P2;Temp;Humidity;BMP_temperature;BMP_pressure;BME280_temperature;BME280_humidity;BME280_pressure;Samples;Min_cycle;Max_cycle;Signal;HPM_P1;HPM_P2
2022/11/03 00:02:32;;;;;;;17.70;11.40;;;;;;;;;;5143294;27;20083;-69
2022/11/03 00:08:22;;;;;;;24.45;11.50;;;;;;;;;;5158824;27;20458;-70
2022/11/03 00:11:11;;;;;;;20.13;11.85;;;;;;;;;;5157667;27;20368;-69
2022/11/03 00:13:57;;;;;;;22.23;12.52;;;;;;;;;;5157749;27;20072;-71
2022/11/03 00:16:43;;;;;;;20.45;12.25;;;;;;;;;;5158061;27;20087;-71
2022/11/03 00:19:28;;;;;;;19.33;11.43;;;;;;;;;;5157823;27;20115;-71
2022/11/03 00:22:14;;;;;;;21.27;11.55;;;;;;;;;;5158379;27;20150;-69
2022/11/03 00:24:59;;;;;;;25.20;12.02;;;;;;;;;;5157309;27;20022;-69
2022/11/03 00:27:45;;;;;;;20.15;12.68;;;;;;;;;;5142230;27;20015;-69
2022/11/03 00:30:31;;;;;;;22.55;12.35;;;;;;;;;;5143325;27;20413;-69
2022/11/03 00:33:16;;;;;;;21.75;11.43;;;;;;;;;;5158264;27;20053;-69
2022/11/03 00:36:02;;;;;;;19.15;11.95;;;;;;;;;;5157783;27;20015;-70
2022/11/03 00:38:48;;;;;;;20.05;11.40;;;;;;;;;;5157490;27;20098;-71
2022/11/03 00:41:34;;;;;;;19.42;11.48;;;;;;;;;;5157669;27;20072;-70
2022/11/03 00:44:19;;;;;;;18.85;11.07;;;;;;;;;;5139475;27;20019;-70
2022/11/03 00:47:05;;;;;;;20.48;11.38;;;;;;;;;;5115895;28;20035;-69
2022/11/03 00:49:51;;;;;;;22.63;11.27;;;;;;;;;;5115955;28;20090;-73
2022/11/03 00:52:36;;;;;;;18.35;11.00;;;;;;;;;;5101557;28;20023;-70
2022/11/03 00:55:22;;;;;;;16.85;10.27;;;;;;;;;;5115437;28;20519;-72
2022/11/03 00:58:07;;;;;;;23.73;10.75;;;;;;;;;;5101419;28;20055;-71
2022/11/03 01:01:04;;;;;;;17.85;10.70;;;;;;;;;;5101778;28;20084;-70
2022/11/03 01:06:55;;;;;;;18.10;10.43;;;;;;;;;;5116215;28;20056;-70
2022/11/03 01:09:42;;;;;;;18.48;10.32;;;;;;;;;;5116914;28;20027;-69
2022/11/03 01:12:27;;;;;;;18.17;9.80;;;;;;;;;;5116003;28;20103;-71
2022/11/03 01:15:13;;;;;;;18.63;10.27;;;;;;;;;;5101522;28;20066;-71
2022/11/03 01:17:59;;;;;;;21.13;10.15;;;;;;;;;;5116256;28;20073;-71
2022/11/03 01:20:45;;;;;;;19.35;10.43;;;;;;;;;;5115271;28;20020;-71
2022/11/03 01:23:30;;;;;;;20.17;10.57;;;;;;;;;;5116204;28;20088;-71
2022/11/03 01:26:16;;;;;;;21.33;10.90;;;;;;;;;;5115787;28;20015;-70
2022/11/03 01:29:01;;;;;;;19.67;10.23;;;;;;;;;;5115392;28;20106;-71
2022/11/03 01:31:47;;;;;;;20.70;10.48;;;;;;;;;;5115955;28;20016;-70
2022/11/03 01:34:33;;;;;;;17.58;10.70;;;;;;;;;;5115688;28;20438;-71
2022/11/03 01:37:19;;;;;;;20.08;10.48;;;;;;;;;;5114991;28;20016;-71
2022/11/03 01:40:04;;;;;;;19.55;10.20;;;;;;;;;;5115408;28;20099;-71
2022/11/03 01:42:50;;;;;;;21.83;10.43;;;;;;;;;;5115430;28;20016;-71
2022/11/03 01:45:36;;;;;;;21.88;10.50;;;;;;;;;;5126593;27;20461;-71
2022/11/03 01:48:21;;;;;;;18.80;11.40;;;;;;;;;;5136510;27;20019;-70
2022/11/03 01:51:08;;;;;;;20.70;11.07;;;;;;;;;;5136139;27;20019;-72
2022/11/03 01:53:55;;;;;;;19.40;11.05;;;;;;;;;;5135136;27;20462;-71
2022/11/03 01:56:45;;;;;;;18.77;11.30;;;;;;;;;;5134885;27;20042;-71
2022/11/03 01:59:31;;;;;;;18.80;10.65;;;;;;;;;;5123255;27;20371;-70
2022/11/03 02:02:17;;;;;;;21.75;11.23;;;;;;;;;;5138071;27;20447;-70
2022/11/03 02:05:03;;;;;;;19.55;11.18;;;;;;;;;;5139474;27;20022;-70
2022/11/03 02:07:57;;;;;;;19.85;11.23;;;;;;;;;;5138622;27;20013;-70
2022/11/03 02:10:46;;;;;;;22.60;11.18;;;;;;;;;;5125201;27;20052;-70
2022/11/03 02:13:32;;;;;;;20.77;11.20;;;;;;;;;;5137776;27;20027;-71
2022/11/03 02:16:19;;;;;;;22.65;11.30;;;;;;;;;;5139280;27;20019;-70
2022/11/03 02:19:08;;;;;;;17.50;11.38;;;;;;;;;;5139845;27;20048;-70
2022/11/03 02:21:57;;;;;;;22.20;11.27;;;;;;;;;;5140249;27;20085;-70
2022/11/03 02:24:42;;;;;;;20.73;10.90;;;;;;;;;;5138954;27;20395;-70
2022/11/03 02:27:28;;;;;;;23.40;11.25;;;;;;;;;;5139072;27;20022;-70
2022/11/03 02:30:13;;;;;;;20.75;11.30;;;;;;;;;;5139433;27;20030;-70
2022/11/03 02:33:07;;;;;;;21.30;11.05;;;;;;;;;;5139407;27;20015;-70
2022/11/03 02:35:56;;;;;;;22.60;11.82;;;;;;;;;;5121295;27;20460;-70
2022/11/03 02:38:44;;;;;;;23.55;12.50;;;;;;;;;;5139113;27;20465;-72
2022/11/03 02:41:32;;;;;;;17.55;11.10;;;;;;;;;;5137255;27;20029;-70
2022/11/03 02:44:19;;;;;;;24.80;11.93;;;;;;;;;;5135711;27;20023;-71
2022/11/03 02:47:07;;;;;;;15.02;10.48;;;;;;;;;;5136310;27;20026;-71
2022/11/03 02:49:53;;;;;;;22.23;11.50;;;;;;;;;;5136555;27;20413;-71
2022/11/03 02:52:43;;;;;;;22.77;12.15;;;;;;;;;;5135280;27;20346;-72
2022/11/03 02:55:35;;;;;;;18.95;11.27;;;;;;;;;;5134487;28;20025;-70
2022/11/03 02:58:25;;;;;;;21.85;11.85;;;;;;;;;;5135682;27;20023;-72
2022/11/03 03:01:17;;;;;;;17.67;11.82;;;;;;;;;;5119393;28;20460;-70
2022/11/03 03:04:05;;;;;;;20.98;12.63;;;;;;;;;;5134949;28;20023;-71
2022/11/03 03:06:53;;;;;;;22.40;12.40;;;;;;;;;;5135362;28;20038;-70
2022/11/03 03:09:44;;;;;;;24.70;12.20;;;;;;;;;;5136938;28;20023;-70
2022/11/03 03:12:31;;;;;;;21.48;12.75;;;;;;;;;;5136803;28;20023;-69
2022/11/03 03:15:17;;;;;;;23.88;12.43;;;;;;;;;;5119937;28;20024;-71
2022/11/03 03:18:09;;;;;;;21.67;12.05;;;;;;;;;;5134784;28;20031;-72
2022/11/03 03:20:57;;;;;;;22.60;12.43;;;;;;;;;;5135263;28;20038;-71
2022/11/03 03:23:48;;;;;;;22.88;13.40;;;;;;;;;;5134640;28;20034;-71
2022/11/03 03:26:36;;;;;;;20.67;12.25;;;;;;;;;;5134299;28;20031;-70
2022/11/03 03:29:32;;;;;;;30.40;12.57;;;;;;;;;;5136358;28;20456;-71
2022/11/03 03:32:20;;;;;;;23.10;12.25;;;;;;;;;;5136517;28;20334;-69
2022/11/03 03:35:07;;;;;;;24.20;12.23;;;;;;;;;;5136827;28;20053;-70
2022/11/03 03:37:56;;;;;;;22.40;12.98;;;;;;;;;;5136338;28;20030;-71
2022/11/03 03:40:43;;;;;;;25.92;12.68;;;;;;;;;;5136759;28;20027;-70
2022/11/03 03:43:30;;;;;;;26.35;13.07;;;;;;;;;;5135490;28;20360;-70
2022/11/03 03:46:19;;;;;;;24.80;12.80;;;;;;;;;;5134599;28;20054;-72
2022/11/03 03:49:05;;;;;;;24.27;12.85;;;;;;;;;;5136707;28;20027;-71
2022/11/03 03:51:50;;;;;;;22.83;12.90;;;;;;;;;;5138384;27;20376;-71
2022/11/03 03:54:36;;;;;;;21.75;12.73;;;;;;;;;;5139667;27;20301;-71
2022/11/03 03:57:23;;;;;;;21.35;12.82;;;;;;;;;;5126717;27;20373;-69
2022/11/03 04:00:11;;;;;;;19.25;11.88;;;;;;;;;;5139483;27;20365;-71
2022/11/03 04:02:57;;;;;;;20.73;12.82;;;;;;;;;;5139731;27;20090;-71
2022/11/03 04:05:43;;;;;;;20.92;12.20;;;;;;;;;;5139458;27;20015;-70
2022/11/03 04:08:29;;;;;;;29.95;13.55;;;;;;;;;;5138120;27;20433;-70
2022/11/03 04:23:31;;;;;;;20.20;13.45;;;;;;;;;;5138765;27;20031;-71
2022/11/03 04:26:17;;;;;;;22.52;12.85;;;;;;;;;;5137076;27;20430;-71
2022/11/03 04:29:05;;;;;;;24.23;13.60;;;;;;;;;;5136727;27;20027;-69
2022/11/03 04:31:51;;;;;;;19.92;12.77;;;;;;;;;;5136631;27;20345;-72
2022/11/03 04:34:36;;;;;;;24.70;13.30;;;;;;;;;;5138269;27;20023;-70
2022/11/03 04:37:22;;;;;;;22.98;12.73;;;;;;;;;;5137075;27;20019;-72
2022/11/03 04:40:12;;;;;;;21.88;13.70;;;;;;;;;;5137792;27;20140;-71
2022/11/03 04:42:57;;;;;;;25.27;13.68;;;;;;;;;;5121964;27;20072;-71
2022/11/03 04:45:44;;;;;;;26.35;13.30;;;;;;;;;;5136128;27;20039;-71
2022/11/03 04:48:30;;;;;;;24.42;13.85;;;;;;;;;;5136802;27;20032;-72
2022/11/03 04:51:16;;;;;;;25.30;13.82;;;;;;;;;;5136374;27;20054;-72
2022/11/03 04:54:02;;;;;;;21.55;13.23;;;;;;;;;;5136365;27;20506;-71
2022/11/03 04:56:48;;;;;;;25.58;13.02;;;;;;;;;;5136148;27;20402;-70
2022/11/03 04:59:33;;;;;;;24.55;13.80;;;;;;;;;;5137618;27;20584;-72
2022/11/03 05:02:19;;;;;;;21.45;12.60;;;;;;;;;;5136054;27;20087;-70
2022/11/03 05:05:19;;;;;;;24.33;13.48;;;;;;;;;;5121565;27;20568;-71
2022/11/03 05:08:07;;;;;;;21.45;13.15;;;;;;;;;;5136866;27;20326;-72
2022/11/03 05:10:53;;;;;;;24.35;13.75;;;;;;;;;;5121969;27;20039;-71
2022/11/03 05:13:38;;;;;;;27.77;13.27;;;;;;;;;;5136277;27;20019;-71
2022/11/03 05:16:24;;;;;;;22.38;13.15;;;;;;;;;;5121420;27;20102;-72
2022/11/03 05:19:15;;;;;;;21.15;12.98;;;;;;;;;;5136770;27;20083;-72
2022/11/03 05:22:01;;;;;;;20.73;13.45;;;;;;;;;;5136321;27;20524;-72
2022/11/03 05:24:49;;;;;;;23.08;13.05;;;;;;;;;;5121763;27;20027;-71
2022/11/03 05:27:35;;;;;;;22.73;12.50;;;;;;;;;;5135378;27;20011;-71
2022/11/03 05:30:21;;;;;;;21.30;12.68;;;;;;;;;;5122349;27;20019;-72
2022/11/03 05:33:18;;;;;;;21.50;11.90;;;;;;;;;;5136053;27;20171;-71
2022/11/03 05:36:15;;;;;;;25.30;12.65;;;;;;;;;;5121459;27;20314;-71
2022/11/03 05:39:16;;;;;;;20.88;12.10;;;;;;;;;;5135412;27;20371;-70
2022/11/03 05:42:11;;;;;;;21.70;12.32;;;;;;;;;;5135452;27;20027;-70
2022/11/03 05:44:59;;;;;;;19.75;10.93;;;;;;;;;;5120729;27;20126;-71
2022/11/03 05:47:45;;;;;;;24.25;12.02;;;;;;;;;;5135112;27;20015;-72
2022/11/03 05:50:33;;;;;;;20.00;11.63;;;;;;;;;;5135016;27;20020;-71
2022/11/03 05:53:37;;;;;;;18.55;11.02;;;;;;;;;;5120709;27;20019;-71
2022/11/03 05:56:23;;;;;;;22.55;11.13;;;;;;;;;;5135188;27;20027;-71
2022/11/03 05:59:10;;;;;;;23.65;10.98;;;;;;;;;;5134955;27;20061;-71
2022/11/03 06:01:59;;;;;;;15.95;10.70;;;;;;;;;;5120541;27;20433;-70
2022/11/03 06:04:44;;;;;;;16.73;10.98;;;;;;;;;;5134832;27;20035;-70
2022/11/03 06:07:30;;;;;;;20.60;11.90;;;;;;;;;;5135210;27;20033;-71
2022/11/03 06:10:26;;;;;;;18.45;10.70;;;;;;;;;;5134888;27;20090;-71
2022/11/03 06:13:17;;;;;;;20.88;11.02;;;;;;;;;;5134549;27;20023;-70
2022/11/03 06:16:05;;;;;;;21.83;11.63;;;;;;;;;;5134676;27;20019;-69
2022/11/03 06:18:51;;;;;;;19.33;10.70;;;;;;;;;;5134303;27;20105;-70
2022/11/03 06:21:36;;;;;;;21.77;11.35;;;;;;;;;;5134834;27;20026;-69
2022/11/03 06:24:23;;;;;;;20.33;11.45;;;;;;;;;;5134741;27;20026;-70
2022/11/03 06:27:17;;;;;;;20.02;10.82;;;;;;;;;;5136026;27;20031;-70
2022/11/03 06:30:18;;;;;;;23.80;10.85;;;;;;;;;;5136362;27;20084;-70
2022/11/03 06:33:24;;;;;;;18.08;11.00;;;;;;;;;;5119974;27;20015;-69
2022/11/03 06:36:18;;;;;;;19.60;11.38;;;;;;;;;;5134448;27;20027;-69
2022/11/03 06:39:12;;;;;;;19.27;11.05;;;;;;;;;;5135226;27;20015;-69
2022/11/03 06:41:58;;;;;;;20.73;11.93;;;;;;;;;;5134209;27;20025;-69
2022/11/03 06:44:45;;;;;;;21.10;11.70;;;;;;;;;;5134113;27;20346;-70
2022/11/03 06:47:31;;;;;;;16.63;10.65;;;;;;;;;;5134503;27;20060;-70
2022/11/03 06:50:26;;;;;;;17.90;11.25;;;;;;;;;;5120701;28;20015;-70
2022/11/03 06:53:18;;;;;;;17.92;11.32;;;;;;;;;;5133918;27;20015;-70
2022/11/03 06:56:08;;;;;;;18.73;11.07;;;;;;;;;;5133984;28;20075;-70
2022/11/03 06:58:55;;;;;;;15.93;10.52;;;;;;;;;;5134396;28;20504;-70
2022/11/03 07:01:41;;;;;;;19.55;11.43;;;;;;;;;;5134097;28;20019;-71
2022/11/03 07:04:29;;;;;;;16.85;10.93;;;;;;;;;;5134313;28;20099;-72
2022/11/03 07:07:15;;;;;;;20.75;12.18;;;;;;;;;;5133794;28;20115;-71
2022/11/03 07:10:00;;;;;;;18.92;11.73;;;;;;;;;;5133941;28;20043;-71
2022/11/03 07:12:46;;;;;;;20.75;12.00;;;;;;;;;;5134234;28;20019;-69
2022/11/03 07:15:33;;;;;;;22.77;12.07;;;;;;;;;;5135416;27;20055;-71
2022/11/03 07:18:24;;;;;;;20.95;11.85;;;;;;;;;;5133885;28;20027;-70
2022/11/03 07:21:22;;;;;;;18.65;11.18;;;;;;;;;;5134088;28;20464;-70
2022/11/03 07:24:13;;;;;;;20.23;12.25;;;;;;;;;;5133702;28;20015;-70
2022/11/03 07:27:11;;;;;;;20.42;11.27;;;;;;;;;;5134988;27;20027;-71
2022/11/03 07:29:59;;;;;;;16.63;10.57;;;;;;;;;;5137992;27;20015;-72
2022/11/03 07:32:45;;;;;;;16.92;9.98;;;;;;;;;;5137535;27;20015;-71
2022/11/03 07:35:32;;;;;;;20.08;10.32;;;;;;;;;;5138878;27;20038;-71
2022/11/03 07:38:19;;;;;;;18.73;10.18;;;;;;;;;;5137456;27;20105;-71
2022/11/03 07:41:05;;;;;;;15.20;9.73;;;;;;;;;;5137753;27;20030;-71
2022/11/03 07:43:54;;;;;;;19.60;10.02;;;;;;;;;;5138433;27;20102;-72
2022/11/03 07:46:41;;;;;;;18.10;9.60;;;;;;;;;;5137541;27;20039;-72
2022/11/03 07:49:27;;;;;;;13.85;9.25;;;;;;;;;;5125336;27;20347;-71
2022/11/03 07:52:18;;;;;;;19.95;9.50;;;;;;;;;;5139263;27;20410;-72
2022/11/03 07:55:08;;;;;;;15.43;8.85;;;;;;;;;;5139210;27;20027;-71
2022/11/03 07:57:54;;;;;;;17.13;9.32;;;;;;;;;;5138340;27;20019;-71
2022/11/03 08:00:40;;;;;;;16.85;9.73;;;;;;;;;;5138113;27;20047;-72
2022/11/03 08:03:30;;;;;;;19.73;9.10;;;;;;;;;;5138364;27;20038;-71
2022/11/03 08:06:16;;;;;;;33.38;10.15;;;;;;;;;;5123441;27;20015;-71
2022/11/03 08:09:01;;;;;;;24.20;10.25;;;;;;;;;;5136975;27;20525;-72
2022/11/03 08:11:47;;;;;;;16.60;9.55;;;;;;;;;;5137729;27;20076;-71
2022/11/03 08:14:33;;;;;;;18.13;9.15;;;;;;;;;;5138010;27;20065;-71
2022/11/03 08:17:18;;;;;;;11.18;7.88;;;;;;;;;;5139167;27;20019;-72
2022/11/03 08:20:04;;;;;;;26.23;9.43;;;;;;;;;;5124492;27;20110;-72
2022/11/03 08:22:50;;;;;;;15.07;8.95;;;;;;;;;;5138087;27;20110;-68
2022/11/03 08:25:35;;;;;;;15.55;8.20;;;;;;;;;;5137549;27;20084;-69
2022/11/03 08:28:21;;;;;;;14.40;8.80;;;;;;;;;;5137652;27;20055;-68
2022/11/03 08:31:07;;;;;;;19.38;8.45;;;;;;;;;;5137926;27;20015;-70
2022/11/03 08:33:52;;;;;;;13.43;8.35;;;;;;;;;;5138485;27;20394;-69
2022/11/03 08:36:38;;;;;;;16.40;7.85;;;;;;;;;;5123290;27;20027;-68
2022/11/03 08:39:23;;;;;;;15.23;8.00;;;;;;;;;;5136315;27;20413;-69
2022/11/03 08:42:09;;;;;;;11.50;7.30;;;;;;;;;;5137971;27;20065;-69
2022/11/03 08:44:55;;;;;;;16.08;7.07;;;;;;;;;;5137216;27;20096;-69
2022/11/03 08:47:40;;;;;;;22.27;8.00;;;;;;;;;;5136750;27;20429;-70
2022/11/03 08:50:26;;;;;;;13.50;6.85;;;;;;;;;;5136721;27;20111;-69
2022/11/03 08:53:12;;;;;;;16.55;7.80;;;;;;;;;;5136308;27;20111;-68
2022/11/03 08:55:57;;;;;;;10.80;7.45;;;;;;;;;;5137300;27;20034;-69
2022/11/03 08:58:43;;;;;;;11.98;7.20;;;;;;;;;;5137638;27;20043;-69
2022/11/03 09:01:28;;;;;;;14.45;7.70;;;;;;;;;;5137134;27;20330;-70
2022/11/03 09:04:14;;;;;;;15.75;7.53;;;;;;;;;;5137370;27;20019;-70
2022/11/03 09:06:59;;;;;;;12.45;7.32;;;;;;;;;;5122958;27;20140;-69
2022/11/03 09:09:45;;;;;;;15.82;7.53;;;;;;;;;;5137210;27;20019;-69
2022/11/03 09:12:31;;;;;;;11.13;7.68;;;;;;;;;;5123652;27;20437;-69
2022/11/03 09:15:16;;;;;;;13.65;7.40;;;;;;;;;;5136790;27;20027;-70
2022/11/03 09:18:02;;;;;;;12.35;7.40;;;;;;;;;;5136532;27;20350;-70
2022/11/03 09:20:48;;;;;;;30.60;14.65;;;;;;;;;;5137465;27;20023;-70
2022/11/03 09:23:33;;;;;;;11.40;8.10;;;;;;;;;;5135665;27;20034;-70
2022/11/03 09:26:19;;;;;;;13.63;7.72;;;;;;;;;;5136244;27;20023;-69
2022/11/03 09:29:05;;;;;;;14.02;7.68;;;;;;;;;;5136573;27;20441;-69
2022/11/03 09:31:50;;;;;;;12.52;8.10;;;;;;;;;;5136324;27;20023;-69
2022/11/03 09:34:36;;;;;;;12.68;7.43;;;;;;;;;;5136438;27;20025;-69
2022/11/03 09:37:21;;;;;;;14.25;7.53;;;;;;;;;;5121383;27;20023;-70
2022/11/03 09:40:08;;;;;;;11.60;7.15;;;;;;;;;;5122026;27;20023;-68
2022/11/03 09:42:55;;;;;;;12.15;7.75;;;;;;;;;;5136042;27;20026;-71
2022/11/03 09:45:41;;;;;;;14.20;7.30;;;;;;;;;;5135771;27;20047;-72
2022/11/03 09:48:27;;;;;;;16.55;7.75;;;;;;;;;;5136438;27;20011;-69
2022/11/03 09:51:15;;;;;;;11.18;7.43;;;;;;;;;;5136346;27;20042;-71
2022/11/03 09:54:02;;;;;;;15.02;7.90;;;;;;;;;;5136533;27;20019;-73
2022/11/03 09:56:47;;;;;;;16.90;8.02;;;;;;;;;;5136440;27;20080;-73
2022/11/03 09:59:33;;;;;;;15.45;7.50;;;;;;;;;;5136017;27;20079;-71
2022/11/03 10:02:21;;;;;;;12.57;7.30;;;;;;;;;;5136312;27;20056;-72
2022/11/03 10:05:07;;;;;;;15.50;7.80;;;;;;;;;;5121598;27;20114;-72
2022/11/03 10:08:03;;;;;;;10.65;7.00;;;;;;;;;;5135886;27;20459;-72
2022/11/03 10:10:50;;;;;;;10.98;6.75;;;;;;;;;;5122664;27;20034;-71
2022/11/03 10:13:38;;;;;;;17.55;7.10;;;;;;;;;;5136182;27;20027;-71
2022/11/03 10:16:24;;;;;;;28.80;8.10;;;;;;;;;;5136062;27;20027;-72
2022/11/03 10:19:12;;;;;;;13.65;7.07;;;;;;;;;;5136726;27;20466;-72
2022/11/03 10:21:57;;;;;;;11.77;7.10;;;;;;;;;;5135127;27;20050;-71
2022/11/03 10:24:43;;;;;;;12.27;7.30;;;;;;;;;;5135745;27;20047;-70
2022/11/03 10:27:29;;;;;;;12.05;6.90;;;;;;;;;;5136067;27;20058;-72
2022/11/03 10:30:14;;;;;;;16.00;7.50;;;;;;;;;;5136010;27;20015;-73
2022/11/03 10:33:00;;;;;;;12.65;7.18;;;;;;;;;;5135593;27;20072;-71
2022/11/03 10:35:46;;;;;;;13.13;7.47;;;;;;;;;;5135331;27;20023;-73
2022/11/03 10:38:35;;;;;;;13.68;7.30;;;;;;;;;;5134550;27;20019;-73
2022/11/03 10:41:21;;;;;;;11.23;7.07;;;;;;;;;;5136246;27;20023;-72
2022/11/03 10:44:10;;;;;;;10.85;7.20;;;;;;;;;;5135938;27;20064;-72
2022/11/03 10:46:59;;;;;;;14.30;7.53;;;;;;;;;;5155332;27;20034;-72
2022/11/03 10:49:45;;;;;;;12.77;7.72;;;;;;;;;;5154600;27;20015;-72
2022/11/03 10:52:31;;;;;;;11.55;7.10;;;;;;;;;;5156025;27;20106;-72
2022/11/03 10:55:17;;;;;;;12.27;6.72;;;;;;;;;;5154684;27;20324;-72
2022/11/03 10:58:03;;;;;;;11.65;6.68;;;;;;;;;;5155165;27;20026;-72
2022/11/03 11:00:49;;;;;;;11.43;6.45;;;;;;;;;;5154598;27;20170;-72
2022/11/03 11:03:38;;;;;;;15.18;7.03;;;;;;;;;;5155261;27;20023;-72
2022/11/03 11:06:24;;;;;;;10.23;6.50;;;;;;;;;;5155113;27;20023;-73
2022/11/03 11:09:11;;;;;;;12.10;6.40;;;;;;;;;;5155048;27;20437;-71
2022/11/03 11:11:58;;;;;;;12.30;6.90;;;;;;;;;;5154744;27;20023;-72
2022/11/03 11:14:56;;;;;;;10.52;6.95;;;;;;;;;;5155208;27;20076;-73
2022/11/03 11:17:43;;;;;;;10.52;6.20;;;;;;;;;;5155062;27;20125;-72
2022/11/03 11:20:36;;;;;;;17.55;7.13;;;;;;;;;;5155691;27;20018;-71
2022/11/03 11:23:28;;;;;;;12.05;6.53;;;;;;;;;;5155326;27;20015;-70
2022/11/03 11:26:13;;;;;;;12.40;6.93;;;;;;;;;;5139725;27;20451;-71
2022/11/03 11:29:19;;;;;;;11.73;6.95;;;;;;;;;;5154699;27;20444;-71
2022/11/03 11:32:30;;;;;;;11.77;6.63;;;;;;;;;;5154869;27;20313;-71
2022/11/03 11:35:17;;;;;;;11.75;6.70;;;;;;;;;;5154712;27;20030;-72
2022/11/03 11:38:22;;;;;;;11.13;6.88;;;;;;;;;;5139205;27;20019;-71
2022/11/03 11:41:08;;;;;;;12.40;6.82;;;;;;;;;;5154049;27;20075;-70
2022/11/03 11:44:14;;;;;;;11.73;7.00;;;;;;;;;;5154952;27;20023;-71
2022/11/03 11:46:59;;;;;;;15.13;6.85;;;;;;;;;;5140612;27;20062;-72
2022/11/03 11:49:45;;;;;;;11.70;7.07;;;;;;;;;;5139059;27;20007;-72
2022/11/03 11:52:31;;;;;;;14.95;7.43;;;;;;;;;;5154860;27;20011;-72
2022/11/03 11:55:18;;;;;;;10.63;6.88;;;;;;;;;;5155058;27;20022;-74
2022/11/03 11:58:24;;;;;;;12.02;7.18;;;;;;;;;;5155783;27;20368;-72
2022/11/03 12:01:21;;;;;;;10.95;6.72;;;;;;;;;;5155575;27;20086;-73
2022/11/03 12:04:13;;;;;;;11.23;7.03;;;;;;;;;;5139399;27;20034;-72
2022/11/03 12:06:59;;;;;;;14.05;7.40;;;;;;;;;;5154172;27;20023;-71
2022/11/03 12:09:45;;;;;;;13.73;6.75;;;;;;;;;;5154350;27;20066;-71
2022/11/03 12:12:34;;;;;;;16.42;6.78;;;;;;;;;;5155075;27;20027;-73
2022/11/03 12:15:38;;;;;;;15.82;7.13;;;;;;;;;;5157918;27;20061;-70
2022/11/03 12:18:33;;;;;;;11.27;6.43;;;;;;;;;;5157424;27;20033;-72
2022/11/03 12:21:37;;;;;;;11.95;6.80;;;;;;;;;;5158519;27;20033;-72
2022/11/03 12:24:32;;;;;;;14.65;6.93;;;;;;;;;;5156309;27;20078;-72
2022/11/03 12:27:19;;;;;;;17.50;7.53;;;;;;;;;;5157801;27;20094;-70
2022/11/03 12:30:10;;;;;;;11.85;7.20;;;;;;;;;;5157917;27;20419;-71
2022/11/03 12:32:56;;;;;;;13.43;6.80;;;;;;;;;;5157851;27;20033;-68
2022/11/03 12:35:42;;;;;;;16.67;7.40;;;;;;;;;;5142795;27;20450;-67
2022/11/03 12:38:27;;;;;;;12.77;7.15;;;;;;;;;;5159303;27;20064;-67
2022/11/03 12:41:25;;;;;;;14.13;7.50;;;;;;;;;;5157501;27;20011;-66
2022/11/03 12:44:11;;;;;;;13.73;7.20;;;;;;;;;;5158506;27;20023;-67
2022/11/03 12:46:57;;;;;;;16.23;7.88;;;;;;;;;;5156754;27;20117;-66
2022/11/03 12:49:42;;;;;;;14.18;7.75;;;;;;;;;;5157547;27;20397;-67
2022/11/03 12:52:28;;;;;;;13.15;7.90;;;;;;;;;;5157281;27;20022;-67
2022/11/03 12:55:14;;;;;;;15.00;7.10;;;;;;;;;;5157205;27;20093;-67
2022/11/03 12:58:00;;;;;;;13.20;7.80;;;;;;;;;;5158195;27;20015;-67
2022/11/03 13:00:45;;;;;;;14.70;7.43;;;;;;;;;;5141876;27;20436;-68
2022/11/03 13:03:32;;;;;;;14.50;7.40;;;;;;;;;;5156920;27;20036;-67
2022/11/03 13:06:18;;;;;;;12.27;7.25;;;;;;;;;;5156388;27;20037;-67
2022/11/03 13:09:04;;;;;;;15.15;7.75;;;;;;;;;;5156764;27;20023;-67
2022/11/03 13:14:53;;;;;;;13.75;7.03;;;;;;;;;;5156956;27;20007;-67
2022/11/03 13:17:39;;;;;;;10.70;6.85;;;;;;;;;;5156598;27;20014;-66
2022/11/03 13:20:24;;;;;;;12.70;7.05;;;;;;;;;;5156518;27;20031;-66
2022/11/03 13:23:10;;;;;;;14.32;7.30;;;;;;;;;;5157118;27;20046;-69
2022/11/03 13:25:56;;;;;;;15.27;7.32;;;;;;;;;;5155657;27;20053;-68
2022/11/03 13:28:41;;;;;;;11.10;7.18;;;;;;;;;;5156960;27;20023;-67
2022/11/03 13:31:27;;;;;;;10.98;7.18;;;;;;;;;;5156819;27;20030;-68
2022/11/03 13:34:12;;;;;;;21.20;7.70;;;;;;;;;;5156413;27;20015;-68
2022/11/03 13:36:58;;;;;;;17.83;8.30;;;;;;;;;;5156414;27;20101;-71
2022/11/03 13:39:44;;;;;;;16.55;8.23;;;;;;;;;;5157208;27;20501;-72
2022/11/03 13:42:29;;;;;;;17.25;8.25;;;;;;;;;;5156411;27;20033;-71
2022/11/03 13:45:15;;;;;;;16.95;8.10;;;;;;;;;;5156401;27;20050;-72
2022/11/03 13:48:00;;;;;;;17.77;8.10;;;;;;;;;;5155731;27;20027;-73
2022/11/03 13:50:49;;;;;;;14.80;8.38;;;;;;;;;;5156067;27;20075;-71
2022/11/03 13:53:35;;;;;;;15.40;8.35;;;;;;;;;;5140805;27;20042;-72
2022/11/03 13:56:20;;;;;;;15.55;8.10;;;;;;;;;;5141324;27;20460;-72
2022/11/03 13:59:06;;;;;;;17.48;8.07;;;;;;;;;;5141682;27;20452;-72
2022/11/03 14:01:51;;;;;;;15.13;8.15;;;;;;;;;;5141574;27;20027;-72
2022/11/03 14:04:38;;;;;;;20.63;8.57;;;;;;;;;;5155871;27;20071;-74
2022/11/03 14:07:23;;;;;;;17.10;8.38;;;;;;;;;;5156364;27;20026;-73
2022/11/03 14:10:09;;;;;;;13.85;7.78;;;;;;;;;;5155965;27;20091;-69
2022/11/03 14:12:55;;;;;;;22.15;10.75;;;;;;;;;;5140235;27;20068;-71
2022/11/03 14:15:40;;;;;;;16.73;8.35;;;;;;;;;;5156190;27;20029;-69
2022/11/03 14:18:26;;;;;;;12.48;7.50;;;;;;;;;;5141374;27;20128;-69
2022/11/03 14:21:11;;;;;;;20.20;9.00;;;;;;;;;;5141474;27;20035;-68
2022/11/03 14:23:57;;;;;;;18.67;10.52;;;;;;;;;;5141351;27;20023;-69
2022/11/03 14:26:42;;;;;;;25.10;9.30;;;;;;;;;;5155772;27;20098;-69
2022/11/03 14:29:28;;;;;;;15.10;9.10;;;;;;;;;;5155558;27;20444;-69
2022/11/03 14:32:14;;;;;;;17.02;9.48;;;;;;;;;;5140603;27;20049;-70
2022/11/03 14:34:59;;;;;;;24.77;8.95;;;;;;;;;;5155008;27;20015;-70
2022/11/03 14:37:45;;;;;;;19.30;8.95;;;;;;;;;;5139713;27;20015;-70
2022/11/03 14:43:35;;;;;;;17.35;9.43;;;;;;;;;;5154977;27;20046;-70
2022/11/03 14:46:20;;;;;;;20.08;12.15;;;;;;;;;;5154884;27;20415;-70
2022/11/03 14:49:06;;;;;;;14.63;8.55;;;;;;;;;;5155194;27;20022;-69
2022/11/03 14:51:52;;;;;;;15.35;8.73;;;;;;;;;;5154711;27;20007;-69
2022/11/03 14:54:37;;;;;;;18.63;8.80;;;;;;;;;;5155888;27;20058;-68
2022/11/03 14:57:23;;;;;;;14.77;8.77;;;;;;;;;;5155029;27;20019;-68
2022/11/03 15:00:10;;;;;;;16.15;8.70;;;;;;;;;;5154886;27;20570;-70
2022/11/03 15:02:55;;;;;;;15.65;8.55;;;;;;;;;;5155137;27;20031;-69
2022/11/03 15:05:43;;;;;;;17.27;9.02;;;;;;;;;;5155132;27;20019;-69
2022/11/03 15:08:31;;;;;;;14.95;8.75;;;;;;;;;;5156090;27;20019;-68
2022/11/03 15:11:16;;;;;;;17.73;8.55;;;;;;;;;;5155320;27;20050;-67
2022/11/03 15:14:02;;;;;;;14.82;9.13;;;;;;;;;;5154716;27;20019;-69
2022/11/03 15:16:47;;;;;;;16.20;8.77;;;;;;;;;;5154665;27;20462;-68
2022/11/03 15:19:33;;;;;;;22.27;9.27;;;;;;;;;;5155364;27;20038;-68
2022/11/03 15:22:19;;;;;;;19.83;9.18;;;;;;;;;;5154846;27;20023;-69
2022/11/03 15:25:05;;;;;;;17.85;9.05;;;;;;;;;;5154505;27;20106;-67
2022/11/03 15:27:50;;;;;;;19.20;9.63;;;;;;;;;;5154128;27;20034;-69
2022/11/03 15:30:36;;;;;;;18.17;8.95;;;;;;;;;;5155034;27;20015;-73
2022/11/03 15:33:21;;;;;;;18.98;9.95;;;;;;;;;;5154779;27;20080;-73
2022/11/03 15:36:07;;;;;;;15.70;9.73;;;;;;;;;;5155149;27;20105;-72
2022/11/03 15:38:53;;;;;;;19.98;10.50;;;;;;;;;;5141222;27;20381;-72
2022/11/03 15:41:38;;;;;;;19.08;9.68;;;;;;;;;;5139348;27;20027;-72
2022/11/03 15:44:24;;;;;;;17.90;9.73;;;;;;;;;;5154555;27;20034;-72
2022/11/03 15:47:10;;;;;;;23.52;10.55;;;;;;;;;;5155700;27;20238;-73
2022/11/03 15:49:56;;;;;;;19.50;10.18;;;;;;;;;;5143543;27;20106;-75
2022/11/03 15:52:41;;;;;;;17.85;10.13;;;;;;;;;;5159263;27;20011;-72
2022/11/03 15:55:27;;;;;;;20.60;10.05;;;;;;;;;;5144244;27;20041;-73
2022/11/03 15:58:12;;;;;;;20.10;10.95;;;;;;;;;;5157851;27;20026;-72
2022/11/03 16:00:58;;;;;;;21.02;10.52;;;;;;;;;;5159362;27;20022;-73
2022/11/03 16:03:44;;;;;;;20.10;10.73;;;;;;;;;;5158285;27;20352;-73
2022/11/03 16:06:29;;;;;;;19.33;10.50;;;;;;;;;;5158237;27;20019;-73
2022/11/03 16:09:15;;;;;;;16.17;10.18;;;;;;;;;;5158493;27;20110;-74
2022/11/03 16:12:00;;;;;;;22.83;11.13;;;;;;;;;;5157730;27;20478;-73
2022/11/03 16:14:46;;;;;;;29.88;14.38;;;;;;;;;;5157770;27;20030;-73
2022/11/03 16:17:32;;;;;;;24.48;13.55;;;;;;;;;;5158250;27;20030;-72
2022/11/03 16:20:19;;;;;;;33.65;16.83;;;;;;;;;;5157182;27;20019;-74
2022/11/03 16:23:04;;;;;;;18.55;11.65;;;;;;;;;;5157403;27;20030;-71
2022/11/03 16:25:50;;;;;;;17.25;10.27;;;;;;;;;;5157741;27;20095;-73
2022/11/03 16:28:36;;;;;;;17.05;10.88;;;;;;;;;;5157493;27;20015;-72
2022/11/03 16:31:21;;;;;;;18.65;9.90;;;;;;;;;;5157595;27;20344;-72
2022/11/03 16:34:07;;;;;;;19.30;10.63;;;;;;;;;;5157675;27;20015;-72
2022/11/03 16:36:53;;;;;;;22.95;10.63;;;;;;;;;;5158201;27;20018;-76
2022/11/03 16:39:38;;;;;;;21.98;11.27;;;;;;;;;;5156988;27;20015;-75
2022/11/03 16:42:24;;;;;;;21.27;11.15;;;;;;;;;;5159283;27;20041;-75
2022/11/03 16:45:13;;;;;;;24.63;11.80;;;;;;;;;;5145109;27;20460;-75
2022/11/03 16:47:59;;;;;;;17.05;10.60;;;;;;;;;;5162809;27;20475;-74